createdAt,value
2023-03-18T00:00:09.886Z,97698.16
2023-03-18T00:02:58.345Z,97700.90
2023-03-18T00:05:26.347Z,97699.80
2023-03-18T00:07:54.430Z,97700.31
2023-03-18T00:10:22.908Z,97702.02
2023-03-18T00:12:50.932Z,97698.28
2023-03-18T00:15:19.821Z,97693.52
2023-03-18T00:17:48.726Z,97689.44
2023-03-18T00:20:18.422Z,97689.95
2023-03-18T00:22:46.876Z,97691.15
2023-03-18T00:25:15.555Z,97690.33
2023-03-18T00:27:43.581Z,97693.27
2023-03-18T00:30:12.522Z,97696.38
2023-03-18T00:32:41.765Z,97694.38
2023-03-18T00:35:10.897Z,97688.48
2023-03-18T00:37:39.931Z,97692.25
2023-03-18T00:40:10.343Z,97688.34
2023-03-18T00:42:40.328Z,97685.45
2023-03-18T00:45:10.478Z,97681.63
2023-03-18T00:47:38.708Z,97679.30
2023-03-18T00:50:08.526Z,97683.77
2023-03-18T00:52:37.752Z,97683.98
2023-03-18T00:55:07.077Z,97684.56
2023-03-18T00:57:35.655Z,97688.72
2023-03-18T01:00:07.350Z,97685.36
2023-03-18T01:02:35.944Z,97685.92
2023-03-18T01:05:05.150Z,97682.06
2023-03-18T01:07:33.140Z,97680.08
2023-03-18T01:10:01.569Z,97673.33
2023-03-18T01:12:30.900Z,97677.13
2023-03-18T01:14:59.284Z,97669.48
2023-03-18T01:17:27.373Z,97671.39
2023-03-18T01:19:55.438Z,97670.55
2023-03-18T01:22:24.468Z,97669.31
2023-03-18T01:24:52.709Z,97671.54
2023-03-18T01:27:23.516Z,97674.08
2023-03-18T01:29:51.828Z,97677.52
2023-03-18T01:32:22.553Z,97671.77
2023-03-18T01:34:50.714Z,97675.84
2023-03-18T01:37:19.761Z,97672.65
2023-03-18T01:39:49.714Z,97671.88
2023-03-18T01:42:23.400Z,97675.24
2023-03-18T01:45:10.148Z,97672.15
2023-03-18T01:47:38.484Z,97669.55
2023-03-18T01:50:06.604Z,97670.65
2023-03-18T01:52:36.470Z,97673.80
2023-03-18T01:55:07.276Z,97678.66
2023-03-18T01:57:35.949Z,97678.20
2023-03-18T02:00:05.717Z,97681.63
2023-03-18T02:02:42.746Z,97681.98
2023-03-18T02:05:13.503Z,97680.85
2023-03-18T02:07:44.532Z,97681.88
2023-03-18T02:10:14.961Z,97680.38
2023-03-18T02:12:45.627Z,97678.23
2023-03-18T02:15:18.449Z,97680.80
2023-03-18T02:17:51.841Z,97680.16
2023-03-18T02:20:39.461Z,97677.98
2023-03-18T02:23:27.743Z,97678.61
2023-03-18T02:26:11.970Z,97683.41
2023-03-18T02:28:42.845Z,97679.34
2023-03-18T02:31:13.725Z,97680.59
2023-03-18T02:33:43.412Z,97679.45
2023-03-18T02:36:17.796Z,97679.87
2023-03-18T02:38:47.201Z,97681.98
2023-03-18T02:41:27.319Z,97680.55
2023-03-18T02:43:56.664Z,97685.39
2023-03-18T02:46:38.452Z,97684.94
2023-03-18T02:49:07.879Z,97684.80
2023-03-18T02:51:37.313Z,97688.75
2023-03-18T02:54:13.396Z,97692.17
2023-03-18T02:56:42.714Z,97692.05
2023-03-18T02:59:11.707Z,97694.27
2023-03-18T03:01:41.205Z,97690.90
2023-03-18T03:04:09.189Z,97691.14
2023-03-18T03:06:37.191Z,97688.10
2023-03-18T03:09:07.246Z,97689.98
2023-03-18T03:11:36.604Z,97693.41
2023-03-18T03:14:12.989Z,97692.43
2023-03-18T03:16:41.527Z,97691.48
2023-03-18T03:19:09.937Z,97692.02
2023-03-18T03:21:38.071Z,97690.16
2023-03-18T03:24:06.992Z,97691.73
2023-03-18T03:26:35.200Z,97692.61
2023-03-18T03:29:04.667Z,97693.99
2023-03-18T03:31:33.191Z,97692.84
2023-03-18T03:34:01.265Z,97692.34
2023-03-18T03:36:29.418Z,97691.84
2023-03-18T03:38:58.120Z,97687.81
2023-03-18T03:41:27.660Z,97691.95
2023-03-18T03:43:55.635Z,97693.52
2023-03-18T03:46:23.585Z,97694.41
2023-03-18T03:48:51.632Z,97699.06
2023-03-18T03:51:19.716Z,97700.66
2023-03-18T03:53:47.960Z,97698.47
2023-03-18T03:56:16.402Z,97699.67
2023-03-18T03:58:45.861Z,97697.16
2023-03-18T04:01:14.563Z,97697.89
2023-03-18T04:03:43.570Z,97700.65
2023-03-18T04:06:12.248Z,97700.54
2023-03-18T04:08:46.261Z,97701.41
2023-03-18T04:11:14.227Z,97698.72
2023-03-18T04:13:42.774Z,97697.20
2023-03-18T04:16:10.675Z,97699.10
2023-03-18T04:18:40.003Z,97700.48
2023-03-18T04:21:08.511Z,97703.90
2023-03-18T04:23:49.759Z,97703.91
2023-03-18T04:26:18.338Z,97703.42
2023-03-18T04:28:47.156Z,97704.96
2023-03-18T04:31:17.140Z,97707.71
2023-03-18T04:33:45.697Z,97711.15
2023-03-18T04:36:14.166Z,97710.50
2023-03-18T04:38:43.135Z,97712.73
2023-03-18T04:41:11.989Z,97710.90
2023-03-18T04:43:40.575Z,97714.00
2023-03-18T04:46:11.261Z,97715.92
2023-03-18T04:48:39.820Z,97718.50
2023-03-18T04:51:09.472Z,97721.21
2023-03-18T04:53:38.909Z,97724.65
2023-03-18T04:56:08.890Z,97725.66
2023-03-18T04:58:45.734Z,97723.50
2023-03-18T05:01:18.349Z,97719.78
2023-03-18T05:03:46.372Z,97721.66
2023-03-18T05:06:23.257Z,97722.35
2023-03-18T05:09:05.686Z,97723.23
2023-03-18T05:11:35.288Z,97721.92
2023-03-18T05:14:13.997Z,97722.79
2023-03-18T05:16:45.683Z,97720.92
2023-03-18T05:19:14.728Z,97725.02
2023-03-18T05:22:02.693Z,97729.48
2023-03-18T05:24:31.216Z,97729.84
2023-03-18T05:27:00.703Z,97727.64
2023-03-18T05:29:33.995Z,97731.22
2023-03-18T05:32:18.100Z,97733.77
2023-03-18T05:34:47.330Z,97732.76
2023-03-18T05:37:15.986Z,97735.50
2023-03-18T05:39:49.906Z,97737.55
2023-03-18T05:42:19.814Z,97740.44
2023-03-18T05:44:48.424Z,97744.52
2023-03-18T05:47:27.344Z,97744.85
2023-03-18T05:50:13.502Z,97743.31
2023-03-18T05:52:43.028Z,97742.96
2023-03-18T05:55:17.308Z,97741.08
2023-03-18T05:57:46.852Z,97739.67
2023-03-18T06:00:15.961Z,97740.17
2023-03-18T06:02:44.942Z,97739.14
2023-03-18T06:05:13.870Z,97737.77
2023-03-18T06:07:41.739Z,97738.24
2023-03-18T06:10:10.717Z,97738.02
2023-03-18T06:12:39.834Z,97737.30
2023-03-18T06:15:08.730Z,97737.42
2023-03-18T06:17:36.779Z,97738.56
2023-03-18T06:20:05.294Z,97737.00
2023-03-18T06:22:33.244Z,97736.41
2023-03-18T06:25:01.332Z,97736.17
2023-03-18T06:27:29.639Z,97735.61
2023-03-18T06:30:02.771Z,97733.65
2023-03-18T06:32:31.139Z,97736.98
2023-03-18T06:35:00.137Z,97737.05
2023-03-18T06:37:28.913Z,97740.02
2023-03-18T06:39:56.871Z,97739.73
2023-03-18T06:42:25.523Z,97739.28
2023-03-18T06:45:05.926Z,97741.17
2023-03-18T06:47:44.649Z,97746.99
2023-03-18T06:50:13.763Z,97744.13
2023-03-18T06:52:42.451Z,97742.29
2023-03-18T06:55:13.146Z,97743.50
2023-03-18T06:57:43.517Z,97743.36
2023-03-18T07:00:11.985Z,97740.69
2023-03-18T07:02:42.056Z,97742.77
2023-03-18T07:05:12.851Z,97739.69
2023-03-18T07:07:42.130Z,97736.48
2023-03-18T07:10:16.858Z,97738.23
2023-03-18T07:12:44.799Z,97735.02
2023-03-18T07:15:12.973Z,97735.39
2023-03-18T07:17:41.391Z,97734.90
2023-03-18T07:20:10.270Z,97734.23
2023-03-18T07:22:38.337Z,97730.64
2023-03-18T07:25:07.758Z,97732.30
2023-03-18T07:27:37.568Z,97728.15
2023-03-18T07:30:05.824Z,97726.91
2023-03-18T07:32:35.359Z,97727.48
2023-03-18T07:35:05.880Z,97722.77
2023-03-18T07:37:33.917Z,97728.98
2023-03-18T07:40:01.898Z,97728.69
2023-03-18T07:42:29.843Z,97722.31
2023-03-18T07:44:58.282Z,97727.19
2023-03-18T07:47:26.361Z,97726.45
2023-03-18T07:49:54.390Z,97723.14
2023-03-18T07:52:22.306Z,97722.42
2023-03-18T07:54:50.532Z,97721.20
2023-03-18T07:57:19.127Z,97727.46
2023-03-18T07:59:47.264Z,97720.48
2023-03-18T08:02:16.064Z,97721.63
2023-03-18T08:04:44.261Z,97720.04
2023-03-18T08:07:12.934Z,97723.41
2023-03-18T08:09:41.093Z,97725.91
2023-03-18T08:12:09.294Z,97725.53
2023-03-18T08:14:37.352Z,97724.78
2023-03-18T08:17:05.452Z,97724.56
2023-03-18T08:19:33.501Z,97723.50
2023-03-18T08:22:01.492Z,97721.89
2023-03-18T08:24:30.079Z,97722.17
2023-03-18T08:26:58.043Z,97721.95
2023-03-18T08:29:26.031Z,97721.38
2023-03-18T08:31:54.572Z,97717.05
2023-03-18T08:34:23.519Z,97716.47
2023-03-18T08:36:52.198Z,97719.34
2023-03-18T08:39:21.114Z,97718.71
2023-03-18T08:41:49.264Z,97717.13
2023-03-18T08:44:18.058Z,97718.79
2023-03-18T08:46:46.080Z,97714.84
2023-03-18T08:49:14.156Z,97714.42
2023-03-18T08:51:42.302Z,97711.27
2023-03-18T08:54:10.596Z,97709.84
2023-03-18T08:56:38.808Z,97708.89
2023-03-18T08:59:07.325Z,97710.23
2023-03-18T09:01:35.402Z,97707.92
2023-03-18T09:04:03.548Z,97705.98
2023-03-18T09:06:31.435Z,97702.36
2023-03-18T09:08:59.336Z,97707.25
2023-03-18T09:11:28.052Z,97701.69
2023-03-18T09:13:55.959Z,97697.65
2023-03-18T09:16:24.580Z,97699.49
2023-03-18T09:18:52.713Z,97701.98
2023-03-18T09:21:20.654Z,97704.31
2023-03-18T09:23:49.774Z,97697.02
2023-03-18T09:26:17.755Z,97701.92
2023-03-18T09:28:45.759Z,97698.73
2023-03-18T09:31:15.549Z,97695.88
2023-03-18T09:33:43.873Z,97695.44
2023-03-18T09:36:11.804Z,97695.33
2023-03-18T09:38:39.838Z,97693.88
2023-03-18T09:41:18.613Z,97685.73
2023-03-18T09:43:49.417Z,97684.87
2023-03-18T09:46:20.313Z,97686.16
2023-03-18T09:48:58.150Z,97682.61
2023-03-18T09:51:38.140Z,97686.95
2023-03-18T09:54:11.006Z,97681.86
2023-03-18T09:56:39.622Z,97681.71
2023-03-18T09:59:16.922Z,97678.86
2023-03-18T10:01:46.993Z,97681.27
2023-03-18T10:04:18.592Z,97682.33
2023-03-18T10:06:49.056Z,97682.31
2023-03-18T10:09:21.121Z,97680.28
2023-03-18T10:11:50.476Z,97677.97
2023-03-18T10:14:21.341Z,97675.91
2023-03-18T10:16:49.280Z,97671.66
2023-03-18T10:19:17.335Z,97665.36
2023-03-18T10:21:45.589Z,97661.58
2023-03-18T10:24:26.332Z,97659.73
2023-03-18T10:27:00.304Z,97652.50
2023-03-18T10:29:34.249Z,97651.48
2023-03-18T10:32:05.230Z,97654.42
2023-03-18T10:34:46.269Z,97649.23
2023-03-18T10:37:19.191Z,97645.13
2023-03-18T10:39:49.526Z,97638.63
2023-03-18T10:42:26.563Z,97640.20
2023-03-18T10:44:56.124Z,97639.98
2023-03-18T10:47:29.268Z,97635.88
2023-03-18T10:50:02.733Z,97632.50
2023-03-18T10:52:37.447Z,97636.45
2023-03-18T10:55:14.290Z,97627.84
2023-03-18T10:57:42.437Z,97629.42
2023-03-18T11:00:30.247Z,97625.20
2023-03-18T11:02:58.713Z,97626.38
2023-03-18T11:05:31.960Z,97625.20
2023-03-18T11:08:02.029Z,97622.80
2023-03-18T11:10:34.747Z,97620.21
2023-03-18T11:13:03.449Z,97617.12
2023-03-18T11:15:36.995Z,97620.27
2023-03-18T11:18:06.194Z,97614.75
2023-03-18T11:20:45.444Z,97613.60
2023-03-18T11:23:18.294Z,97616.98
2023-03-18T11:25:47.062Z,97608.77
2023-03-18T11:28:23.319Z,97606.08
2023-03-18T11:30:54.995Z,97601.27
2023-03-18T11:33:29.779Z,97595.46
2023-03-18T11:35:59.083Z,97589.98
2023-03-18T11:38:29.114Z,97592.42
2023-03-18T11:41:23.106Z,97586.64
2023-03-18T11:44:01.361Z,97584.70
2023-03-18T11:46:36.246Z,97582.11
2023-03-18T11:49:04.631Z,97579.18
2023-03-18T11:51:32.690Z,97576.48
2023-03-18T11:54:03.613Z,97574.63
2023-03-18T11:56:38.636Z,97575.05
2023-03-18T11:59:24.752Z,97567.65
2023-03-18T12:02:11.290Z,97568.20
2023-03-18T12:04:39.442Z,97566.80
2023-03-18T12:07:13.681Z,97561.52
2023-03-18T12:10:09.709Z,97568.98
2023-03-18T12:12:40.703Z,97564.23
2023-03-18T12:15:18.551Z,97557.40
2023-03-18T12:17:59.864Z,97556.48
2023-03-18T12:20:46.825Z,97550.68
2023-03-18T12:23:30.122Z,97544.20
2023-03-18T12:26:02.078Z,97548.55
2023-03-18T12:28:47.450Z,97548.74
2023-03-18T12:31:35.312Z,97548.39
2023-03-18T12:34:04.291Z,97548.56
2023-03-18T12:36:50.893Z,97547.71
2023-03-18T12:39:24.888Z,97545.86
2023-03-18T12:42:10.331Z,97542.95
2023-03-18T12:44:57.957Z,97539.52
2023-03-18T12:47:29.762Z,97536.20
2023-03-18T12:49:59.359Z,97535.27
2023-03-18T12:52:30.432Z,97531.81
2023-03-18T12:55:07.741Z,97529.97
2023-03-18T12:57:38.569Z,97538.66
2023-03-18T13:00:10.555Z,97533.70
2023-03-18T13:02:43.767Z,97530.28
2023-03-18T13:05:20.983Z,97531.30
2023-03-18T13:08:10.594Z,97534.10
2023-03-18T13:10:38.640Z,97523.70
2023-03-18T13:13:08.302Z,97522.31
2023-03-18T13:15:43.063Z,97527.33
2023-03-18T13:18:17.104Z,97522.67
2023-03-18T13:20:46.594Z,97522.95
2023-03-18T13:23:17.972Z,97525.05
2023-03-18T13:25:45.934Z,97522.65
2023-03-18T13:28:19.773Z,97508.66
2023-03-18T13:30:54.102Z,97506.73
2023-03-18T13:33:25.041Z,97499.98
2023-03-18T13:36:25.571Z,97500.31
2023-03-18T13:39:17.125Z,97499.59
2023-03-18T13:41:59.779Z,97500.23
2023-03-18T13:44:42.551Z,97499.52
2023-03-18T13:47:16.682Z,97497.89
2023-03-18T13:49:44.945Z,97496.17
2023-03-18T13:52:31.858Z,97495.33
2023-03-18T13:55:03.731Z,97498.48
2023-03-18T13:57:33.769Z,97490.98
2023-03-18T14:00:14.747Z,97490.89
2023-03-18T14:02:45.744Z,97490.83
2023-03-18T14:05:32.368Z,97489.89
2023-03-18T14:08:05.336Z,97489.72
2023-03-18T14:10:33.435Z,97484.25
2023-03-18T14:13:21.281Z,97482.67
2023-03-18T14:15:49.286Z,97484.59
2023-03-18T14:18:27.815Z,97476.64
2023-03-18T14:20:59.855Z,97472.85
2023-03-18T14:23:33.266Z,97470.65
2023-03-18T14:26:08.707Z,97468.13
2023-03-18T14:28:56.613Z,97462.98
2023-03-18T14:31:49.310Z,97465.04
2023-03-18T14:34:17.284Z,97462.39
2023-03-18T14:36:49.223Z,97463.45
2023-03-18T14:39:19.276Z,97462.95
2023-03-18T14:41:48.869Z,97461.23
2023-03-18T14:44:17.528Z,97458.14
2023-03-18T14:46:46.191Z,97457.27
2023-03-18T14:49:33.194Z,97463.17
2023-03-18T14:52:02.775Z,97463.08
2023-03-18T14:54:34.955Z,97464.29
2023-03-18T14:57:04.360Z,97460.66
2023-03-18T14:59:32.388Z,97459.23
2023-03-18T15:02:02.421Z,97460.75
2023-03-18T15:04:30.539Z,97462.51
2023-03-18T15:07:01.436Z,97462.64
2023-03-18T15:09:31.249Z,97466.73
2023-03-18T15:11:59.271Z,97465.81
2023-03-18T15:14:30.107Z,97462.43
2023-03-18T15:17:04.132Z,97461.19
2023-03-18T15:19:32.765Z,97461.76
2023-03-18T15:22:06.022Z,97458.34
2023-03-18T15:24:34.265Z,97460.47
2023-03-18T15:27:07.114Z,97460.05
2023-03-18T15:29:43.981Z,97460.30
2023-03-18T15:32:18.107Z,97459.82
2023-03-18T15:34:53.116Z,97464.61
2023-03-18T15:37:30.773Z,97466.45
2023-03-18T15:40:16.265Z,97471.23
2023-03-18T15:42:45.601Z,97471.41
2023-03-18T15:45:19.935Z,97471.61
2023-03-18T15:47:48.421Z,97470.89
2023-03-18T15:50:22.589Z,97468.02
2023-03-18T15:53:00.978Z,97473.08
2023-03-18T15:55:31.440Z,97471.11
2023-03-18T15:58:00.283Z,97474.30
2023-03-18T16:00:28.814Z,97475.84
2023-03-18T16:02:56.810Z,97474.17
2023-03-18T16:05:26.683Z,97474.40
2023-03-18T16:07:55.015Z,97474.75
2023-03-18T16:10:23.940Z,97477.42
2023-03-18T16:12:53.770Z,97479.78
2023-03-18T16:15:22.911Z,97482.38
2023-03-18T16:17:52.829Z,97483.82
2023-03-18T16:20:26.228Z,97483.46
2023-03-18T16:22:54.508Z,97482.35
2023-03-18T16:25:23.940Z,97485.88
2023-03-18T16:27:54.293Z,97481.69
2023-03-18T16:30:24.653Z,97489.11
2023-03-18T16:32:53.579Z,97492.86
2023-03-18T16:35:23.245Z,97494.61
2023-03-18T16:37:52.013Z,97494.86
2023-03-18T16:40:21.499Z,97498.08
2023-03-18T16:42:49.588Z,97498.11
2023-03-18T16:45:18.581Z,97496.35
2023-03-18T16:47:47.658Z,97500.44
2023-03-18T16:50:16.033Z,97503.92
2023-03-18T16:52:44.884Z,97506.85
2023-03-18T16:55:17.819Z,97510.05
2023-03-18T16:57:58.765Z,97513.01
2023-03-18T17:00:32.162Z,97512.04
2023-03-18T17:03:01.589Z,97507.89
2023-03-18T17:05:29.619Z,97510.73
2023-03-18T17:07:57.616Z,97510.32
2023-03-18T17:10:26.384Z,97510.59
2023-03-18T17:12:59.699Z,97516.14
2023-03-18T17:15:33.082Z,97518.70
2023-03-18T17:18:01.819Z,97522.36
2023-03-18T17:20:32.524Z,97524.73
2023-03-18T17:23:01.200Z,97526.84
2023-03-18T17:25:30.446Z,97531.36
2023-03-18T17:28:00.051Z,97533.59
2023-03-18T17:30:34.020Z,97537.48
2023-03-18T17:33:03.570Z,97539.38
2023-03-18T17:35:32.339Z,97542.85
2023-03-18T17:38:00.915Z,97545.22
2023-03-18T17:40:30.518Z,97546.83
2023-03-18T17:42:59.007Z,97550.16
2023-03-18T17:45:34.529Z,97555.39
2023-03-18T17:48:22.728Z,97558.60
2023-03-18T17:50:52.222Z,97554.19
2023-03-18T17:53:31.584Z,97557.29
2023-03-18T17:55:59.715Z,97554.69
2023-03-18T17:58:29.245Z,97552.89
2023-03-18T18:01:17.848Z,97553.36
2023-03-18T18:03:47.734Z,97554.02
2023-03-18T18:06:17.810Z,97557.70
2023-03-18T18:08:46.050Z,97558.17
2023-03-18T18:11:14.808Z,97560.87
2023-03-18T18:13:43.953Z,97565.57
2023-03-18T18:16:12.275Z,97564.95
2023-03-18T18:18:40.226Z,97564.29
2023-03-18T18:21:19.817Z,97561.50
2023-03-18T18:23:48.797Z,97559.43
2023-03-18T18:26:18.538Z,97562.85
2023-03-18T18:28:48.289Z,97561.30
2023-03-18T18:31:17.853Z,97565.33
2023-03-18T18:33:46.783Z,97566.40
2023-03-18T18:36:16.741Z,97568.46
2023-03-18T18:38:44.624Z,97566.66
2023-03-18T18:41:13.134Z,97568.30
2023-03-18T18:43:41.295Z,97570.11
2023-03-18T18:46:13.037Z,97573.96
2023-03-18T18:48:41.478Z,97571.62
2023-03-18T18:51:15.035Z,97576.36
2023-03-18T18:53:43.593Z,97572.58
2023-03-18T18:56:14.626Z,97573.54
2023-03-18T18:58:42.958Z,97570.38
2023-03-18T19:01:12.829Z,97570.64
2023-03-18T19:03:42.144Z,97571.25
2023-03-18T19:06:25.738Z,97570.30
2023-03-18T19:08:55.365Z,97568.17
2023-03-18T19:11:24.816Z,97569.41
2023-03-18T19:13:55.190Z,97569.84
2023-03-18T19:16:23.687Z,97571.65
2023-03-18T19:18:51.717Z,97574.10
2023-03-18T19:21:19.699Z,97578.28
2023-03-18T19:23:48.981Z,97578.85
2023-03-18T19:26:18.366Z,97583.12
2023-03-18T19:28:57.161Z,97579.48
2023-03-18T19:31:30.729Z,97580.34
2023-03-18T19:33:59.677Z,97582.06
2023-03-18T19:36:32.357Z,97583.24
2023-03-18T19:39:01.957Z,97581.02
2023-03-18T19:41:30.499Z,97584.63
2023-03-18T19:44:04.173Z,97586.18
2023-03-18T19:46:38.543Z,97587.17
2023-03-18T19:49:26.878Z,97588.69
2023-03-18T19:51:55.160Z,97594.39
2023-03-18T19:54:27.282Z,97589.64
2023-03-18T19:56:57.680Z,97593.10
2023-03-18T19:59:37.474Z,97595.03
2023-03-18T20:02:19.031Z,97594.30
2023-03-18T20:04:49.568Z,97597.10
2023-03-18T20:07:19.603Z,97599.48
2023-03-18T20:09:48.763Z,97600.61
2023-03-18T20:12:23.026Z,97597.09
2023-03-18T20:14:52.867Z,97594.73
2023-03-18T20:17:24.397Z,97598.26
2023-03-18T20:19:54.029Z,97598.49
2023-03-18T20:22:24.113Z,97597.90
2023-03-18T20:24:53.586Z,97600.79
2023-03-18T20:27:22.560Z,97596.85
2023-03-18T20:29:51.420Z,97595.65
2023-03-18T20:32:19.477Z,97594.95
2023-03-18T20:34:48.521Z,97595.14
2023-03-18T20:37:32.621Z,97597.83
2023-03-18T20:40:01.882Z,97595.44
2023-03-18T20:42:30.431Z,97597.92
2023-03-18T20:44:58.435Z,97602.36
2023-03-18T20:47:27.564Z,97601.08
2023-03-18T20:49:56.313Z,97603.70
2023-03-18T20:52:30.292Z,97604.82
2023-03-18T20:54:58.763Z,97602.33
2023-03-18T20:57:27.924Z,97602.63
2023-03-18T20:59:57.651Z,97602.19
2023-03-18T21:02:26.912Z,97603.65
2023-03-18T21:04:55.747Z,97598.36
2023-03-18T21:07:24.536Z,97598.70
2023-03-18T21:09:52.560Z,97598.48
2023-03-18T21:12:22.618Z,97598.75
2023-03-18T21:14:51.956Z,97599.41
2023-03-18T21:17:21.071Z,97597.44
2023-03-18T21:19:50.291Z,97601.08
2023-03-18T21:22:21.595Z,97599.80
2023-03-18T21:24:49.802Z,97600.06
2023-03-18T21:27:23.254Z,97600.16
2023-03-18T21:29:52.152Z,97597.95
2023-03-18T21:32:20.747Z,97601.83
2023-03-18T21:34:50.419Z,97599.38
2023-03-18T21:37:20.513Z,97603.59
2023-03-18T21:39:49.759Z,97601.85
2023-03-18T21:42:26.860Z,97603.07
2023-03-18T21:44:56.547Z,97600.77
2023-03-18T21:47:26.413Z,97599.26
2023-03-18T21:49:54.487Z,97599.05
2023-03-18T21:52:39.882Z,97597.13
2023-03-18T21:55:12.317Z,97595.09
2023-03-18T21:57:40.343Z,97597.15
2023-03-18T22:00:09.193Z,97600.70
2023-03-18T22:02:39.656Z,97603.70
2023-03-18T22:05:12.252Z,97601.40
2023-03-18T22:07:40.167Z,97602.89
2023-03-18T22:10:08.428Z,97603.15
2023-03-18T22:12:37.745Z,97600.73
2023-03-18T22:15:26.519Z,97596.56
2023-03-18T22:17:54.499Z,97594.09
2023-03-18T22:20:23.381Z,97594.37
2023-03-18T22:22:53.070Z,97591.30
2023-03-18T22:25:34.961Z,97596.61
2023-03-18T22:28:03.561Z,97594.72
2023-03-18T22:30:33.274Z,97598.39
2023-03-18T22:33:02.398Z,97597.45
2023-03-18T22:35:30.433Z,97599.41
2023-03-18T22:37:58.489Z,97599.48
2023-03-18T22:40:28.252Z,97599.02
2023-03-18T22:42:58.452Z,97598.75
2023-03-18T22:45:30.763Z,97601.04
2023-03-18T22:48:01.594Z,97601.98
2023-03-18T22:50:31.562Z,97601.98
2023-03-18T22:53:01.611Z,97603.04
2023-03-18T22:55:33.856Z,97604.21
2023-03-18T22:58:02.145Z,97602.64
2023-03-18T23:00:40.903Z,97597.48
2023-03-18T23:03:12.936Z,97597.75
2023-03-18T23:05:41.163Z,97596.31
2023-03-18T23:08:09.563Z,97598.60
2023-03-18T23:10:37.942Z,97600.18
2023-03-18T23:13:26.886Z,97599.27
2023-03-18T23:15:54.912Z,97599.29
2023-03-18T23:18:23.820Z,97604.23
2023-03-18T23:20:52.056Z,97607.61
2023-03-18T23:23:21.735Z,97609.96
2023-03-18T23:25:51.229Z,97601.98
2023-03-18T23:28:19.379Z,97605.02
2023-03-18T23:30:49.176Z,97610.15
2023-03-18T23:33:18.519Z,97611.04
2023-03-18T23:35:47.498Z,97609.21
2023-03-18T23:38:16.169Z,97608.27
2023-03-18T23:40:44.614Z,97612.09
2023-03-18T23:43:12.537Z,97610.00
2023-03-18T23:45:40.594Z,97610.59
2023-03-18T23:48:08.684Z,97611.01
2023-03-18T23:50:36.575Z,97612.70
2023-03-18T23:53:04.455Z,97610.43
2023-03-18T23:55:34.984Z,97607.98
2023-03-18T23:58:03.888Z,97605.52
